Time;durP1;ratioP1;P1;durP2;ratioP2;P2;SDS_P1;SDS_P2;PMS_P1;PMS_P2;Temp;Humidity;BMP_temperature;BMP_pressure;BME280_temperature;BME280_humidity;BME280_pressure;Samples;Min_cycle;Max_cycle;Signal;HPM_P1;HPM_P2
2023/02/19 00:00:26;;;;;;;;;;;20.80;34.10;;;;;;8367880;28;19921;-42
2023/02/19 00:04:26;;;;;;;;;;;20.80;34.20;;;;;;8368169;28;20294;-42
2023/02/19 00:08:28;;;;;;;;;;;20.80;34.20;;;;;;8368458;28;19919;-42
2023/02/19 00:12:28;;;;;;;;;;;20.80;34.20;;;;;;8367603;28;19970;-42
2023/02/19 00:16:34;;;;;;;;;;;20.80;34.20;;;;;;8368145;28;19924;-42
2023/02/19 00:20:34;;;;;;;;;;;20.70;34.20;;;;;;8368034;28;19917;-42
2023/02/19 00:24:35;;;;;;;;;;;20.70;34.30;;;;;;8367496;28;19913;-41
2023/02/19 00:28:35;;;;;;;;;;;20.70;34.20;;;;;;8367535;28;19920;-42
2023/02/19 00:32:36;;;;;;;;;;;20.60;34.30;;;;;;8367483;28;19917;-42
2023/02/19 00:36:37;;;;;;;;;;;20.60;34.30;;;;;;8366096;28;19923;-42
2023/02/19 00:40:37;;;;;;;;;;;20.60;34.20;;;;;;8367339;28;20003;-42
2023/02/19 00:44:38;;;;;;;;;;;20.60;34.30;;;;;;8367024;28;19917;-42
2023/02/19 00:48:38;;;;;;;;;;;20.60;34.30;;;;;;8366662;28;19931;-42
2023/02/19 00:52:39;;;;;;;;;;;20.60;34.30;;;;;;8366963;28;20004;-42
2023/02/19 00:56:39;;;;;;;;;;;20.60;34.40;;;;;;8366891;28;20271;-42
2023/02/19 01:00:40;;;;;;;;;;;20.50;34.40;;;;;;8366433;28;19982;-41
2023/02/19 01:04:40;;;;;;;;;;;20.50;34.40;;;;;;8366313;28;20299;-42
2023/02/19 01:08:41;;;;;;;;;;;20.50;34.40;;;;;;8366597;28;19917;-42
2023/02/19 01:12:41;;;;;;;;;;;20.50;34.40;;;;;;8365645;28;19917;-42
2023/02/19 01:16:41;;;;;;;;;;;20.50;34.50;;;;;;8365992;28;19923;-42
2023/02/19 01:20:43;;;;;;;;;;;20.50;34.50;;;;;;8365740;28;20293;-42
2023/02/19 01:24:43;;;;;;;;;;;20.50;34.40;;;;;;8365440;28;20336;-42
2023/02/19 01:28:44;;;;;;;;;;;20.50;34.40;;;;;;8365599;28;19920;-42
2023/02/19 01:32:44;;;;;;;;;;;20.50;34.40;;;;;;8365464;28;19988;-42
2023/02/19 01:36:44;;;;;;;;;;;20.40;34.40;;;;;;8364882;28;19924;-43
2023/02/19 01:40:52;;;;;;;;;;;20.40;34.40;;;;;;8365209;28;19917;-42
2023/02/19 01:45:12;;;;;;;;;;;20.40;34.50;;;;;;8365098;28;19959;-42
2023/02/19 01:49:17;;;;;;;;;;;20.40;34.50;;;;;;8363571;28;19928;-42
2023/02/19 01:53:19;;;;;;;;;;;20.40;34.50;;;;;;8365322;28;19921;-42
2023/02/19 01:57:22;;;;;;;;;;;20.30;34.50;;;;;;8364831;28;19995;-42
2023/02/19 02:01:23;;;;;;;;;;;20.30;34.50;;;;;;8365070;28;19921;-42
2023/02/19 02:05:34;;;;;;;;;;;20.30;34.60;;;;;;8364529;28;19960;-42
2023/02/19 02:13:54;;;;;;;;;;;20.30;34.60;;;;;;8370068;28;19932;-42
2023/02/19 02:17:56;;;;;;;;;;;20.30;34.60;;;;;;8364628;28;19916;-42
2023/02/19 02:22:15;;;;;;;;;;;20.30;34.60;;;;;;8363980;28;20345;-42
2023/02/19 02:26:48;;;;;;;;;;;20.30;34.60;;;;;;8364224;28;20011;-42
2023/02/19 02:30:54;;;;;;;;;;;20.20;34.60;;;;;;8319107;28;20431;-42
2023/02/19 02:35:04;;;;;;;;;;;20.20;34.70;;;;;;8364041;28;20409;-42
2023/02/19 02:39:06;;;;;;;;;;;20.20;34.70;;;;;;8363586;28;19962;-42
2023/02/19 02:43:07;;;;;;;;;;;20.20;34.70;;;;;;8363158;28;19940;-42
2023/02/19 02:47:39;;;;;;;;;;;20.20;34.70;;;;;;8363433;28;19924;-42
2023/02/19 02:51:30;;;;;;;;;;;20.20;34.70;;;;;;8362875;28;20362;-42
2023/02/19 02:55:33;;;;;;;;;;;20.20;34.70;;;;;;8363325;28;19913;-42
2023/02/19 02:59:36;;;;;;;;;;;20.20;34.70;;;;;;8363387;28;20397;-42
2023/02/19 03:03:38;;;;;;;;;;;20.20;34.70;;;;;;8362804;28;19917;-42
2023/02/19 03:07:44;;;;;;;;;;;20.20;34.70;;;;;;8363300;28;19924;-42
2023/02/19 03:20:33;;;;;;;;;;;20.10;34.70;;;;;;8363737;28;19920;-42
2023/02/19 03:33:17;;;;;;;;;;;20.10;34.70;;;;;;8363042;28;20435;-42
2023/02/19 03:37:23;;;;;;;;;;;20.10;34.70;;;;;;8362111;28;19921;-42
2023/02/19 03:41:34;;;;;;;;;;;20.10;34.70;;;;;;8362918;28;20271;-42
2023/02/19 03:45:34;;;;;;;;;;;20.10;34.70;;;;;;8362414;28;20289;-42
2023/02/19 03:49:37;;;;;;;;;;;20.10;34.70;;;;;;8362354;28;19931;-42
2023/02/19 03:53:48;;;;;;;;;;;20.00;34.70;;;;;;8362359;28;19917;-42
2023/02/19 03:57:52;;;;;;;;;;;20.00;34.70;;;;;;8361740;28;19946;-42
2023/02/19 04:01:55;;;;;;;;;;;20.00;34.70;;;;;;8362300;28;19917;-42
2023/02/19 04:06:00;;;;;;;;;;;20.00;34.70;;;;;;8362225;28;19921;-42
2023/02/19 04:10:00;;;;;;;;;;;19.90;34.70;;;;;;8363977;28;20293;-41
2023/02/19 04:14:07;;;;;;;;;;;20.00;34.80;;;;;;8368103;28;19963;-42
2023/02/19 04:18:13;;;;;;;;;;;20.00;34.70;;;;;;8367947;28;19943;-42
2023/02/19 04:22:14;;;;;;;;;;;19.90;34.70;;;;;;8367287;28;19917;-42
2023/02/19 04:26:16;;;;;;;;;;;20.00;34.70;;;;;;8367908;28;19919;-42
2023/02/19 04:30:16;;;;;;;;;;;20.00;34.60;;;;;;8367743;28;19928;-42
2023/02/19 04:34:16;;;;;;;;;;;20.00;34.60;;;;;;8366884;28;20271;-42
2023/02/19 04:38:17;;;;;;;;;;;20.00;34.60;;;;;;8367333;28;20397;-43
2023/02/19 04:42:17;;;;;;;;;;;19.90;34.60;;;;;;8367270;28;20412;-42
2023/02/19 04:46:18;;;;;;;;;;;20.00;34.60;;;;;;8366722;28;19913;-43
2023/02/19 04:50:18;;;;;;;;;;;20.00;34.60;;;;;;8367324;28;19921;-42
2023/02/19 04:54:19;;;;;;;;;;;20.00;35.20;;;;;;8366901;28;19917;-42
2023/02/19 04:58:20;;;;;;;;;;;20.00;34.60;;;;;;8366209;28;20404;-42
2023/02/19 05:02:22;;;;;;;;;;;20.00;34.60;;;;;;8360561;28;21255;-42
2023/02/19 05:06:22;;;;;;;;;;;19.90;34.60;;;;;;8334531;28;19913;-41
2023/02/19 05:10:23;;;;;;;;;;;19.90;34.60;;;;;;8366563;28;20305;-42
2023/02/19 05:14:23;;;;;;;;;;;20.00;34.60;;;;;;8366139;28;19942;-42
2023/02/19 05:18:24;;;;;;;;;;;20.10;34.60;;;;;;8365770;28;19964;-42
2023/02/19 05:22:24;;;;;;;;;;;20.20;34.60;;;;;;8365943;28;20046;-42
2023/02/19 05:26:25;;;;;;;;;;;20.30;34.50;;;;;;8365909;28;19919;-42
2023/02/19 05:30:25;;;;;;;;;;;20.40;34.40;;;;;;8365521;28;20015;-41
2023/02/19 05:34:26;;;;;;;;;;;20.40;34.40;;;;;;8365561;28;19917;-42
2023/02/19 05:38:26;;;;;;;;;;;20.50;34.40;;;;;;8365576;28;20027;-42
2023/02/19 05:42:27;;;;;;;;;;;20.50;34.40;;;;;;8364901;28;20374;-42
2023/02/19 05:46:31;;;;;;;;;;;20.60;34.30;;;;;;8365733;28;19913;-41
2023/02/19 05:50:32;;;;;;;;;;;20.70;34.30;;;;;;8365174;28;19925;-42
2023/02/19 05:54:33;;;;;;;;;;;20.70;34.20;;;;;;8364565;28;19921;-42
2023/02/19 05:58:33;;;;;;;;;;;20.80;34.30;;;;;;8364744;28;19927;-42
2023/02/19 06:02:35;;;;;;;;;;;20.80;34.30;;;;;;8364582;28;20267;-42
2023/02/19 06:06:36;;;;;;;;;;;20.80;34.30;;;;;;8364466;28;19952;-43
2023/02/19 06:10:37;;;;;;;;;;;20.80;34.70;;;;;;8364515;28;20004;-43
2023/02/19 06:14:37;;;;;;;;;;;20.90;34.20;;;;;;8364273;28;19947;-43
2023/02/19 06:18:40;;;;;;;;;;;20.90;34.20;;;;;;8363585;28;19920;-43
2023/02/19 06:22:40;;;;;;;;;;;20.90;34.30;;;;;;8364390;28;19924;-43
2023/02/19 06:26:41;;;;;;;;;;;20.90;34.30;;;;;;8364424;28;19920;-43
2023/02/19 06:30:41;;;;;;;;;;;20.90;34.20;;;;;;8363282;28;19933;-42
2023/02/19 06:34:41;;;;;;;;;;;21.00;34.30;;;;;;8363140;28;20353;-43
2023/02/19 06:38:42;;;;;;;;;;;21.00;34.20;;;;;;8363663;28;19916;-42
2023/02/19 06:42:42;;;;;;;;;;;21.00;34.20;;;;;;8363080;28;19917;-43
2023/02/19 06:46:43;;;;;;;;;;;21.00;34.20;;;;;;8363813;28;19913;-43
2023/02/19 06:50:43;;;;;;;;;;;21.00;34.30;;;;;;8363270;28;19925;-42
2023/02/19 06:54:44;;;;;;;;;;;21.00;34.30;;;;;;8362856;28;19924;-43
2023/02/19 06:58:44;;;;;;;;;;;20.90;34.30;;;;;;8363485;28;19940;-43
2023/02/19 07:02:44;;;;;;;;;;;20.90;34.40;;;;;;8363192;28;19916;-42
2023/02/19 07:06:45;;;;;;;;;;;20.80;34.40;;;;;;8362961;28;19913;-43
2023/02/19 07:10:52;;;;;;;;;;;20.90;34.40;;;;;;8363070;28;20344;-43
2023/02/19 07:14:52;;;;;;;;;;;20.90;34.40;;;;;;8362973;28;20271;-43
2023/02/19 07:18:55;;;;;;;;;;;20.90;34.40;;;;;;8362479;28;20004;-43
2023/02/19 07:22:56;;;;;;;;;;;20.90;34.30;;;;;;8363130;28;20348;-44
2023/02/19 07:26:56;;;;;;;;;;;21.00;34.30;;;;;;8363117;28;19912;-43
2023/02/19 07:31:00;;;;;;;;;;;21.00;34.30;;;;;;8362178;28;19971;-43
2023/02/19 07:35:01;;;;;;;;;;;21.00;34.30;;;;;;8362884;28;20006;-43
2023/02/19 07:39:02;;;;;;;;;;;21.00;34.30;;;;;;8362778;28;19916;-43
2023/02/19 07:43:02;;;;;;;;;;;21.10;34.30;;;;;;8362208;28;19959;-43
2023/02/19 07:47:02;;;;;;;;;;;21.10;34.20;;;;;;8368262;28;19920;-43
2023/02/19 07:51:04;;;;;;;;;;;21.10;34.30;;;;;;8368804;28;20309;-43
2023/02/19 07:55:04;;;;;;;;;;;21.20;34.30;;;;;;8368186;28;20341;-43
2023/02/19 07:59:05;;;;;;;;;;;21.20;34.30;;;;;;8368476;28;19927;-43
2023/02/19 08:03:05;;;;;;;;;;;21.20;34.30;;;;;;8368405;28;19924;-43
2023/02/19 08:07:06;;;;;;;;;;;21.20;34.20;;;;;;8368147;28;19913;-42
2023/02/19 08:15:25;;;;;;;;;;;21.20;34.30;;;;;;8361303;28;19924;-42
2023/02/19 08:19:26;;;;;;;;;;;21.20;34.30;;;;;;8367881;28;20380;-43
2023/02/19 08:23:26;;;;;;;;;;;21.10;34.40;;;;;;8367768;28;20370;-43
2023/02/19 08:27:27;;;;;;;;;;;21.10;34.40;;;;;;8367400;28;19920;-41
2023/02/19 08:31:27;;;;;;;;;;;21.10;34.40;;;;;;8367430;28;20011;-42
2023/02/19 08:35:28;;;;;;;;;;;21.10;34.50;;;;;;8367545;28;19916;-44
2023/02/19 08:39:28;;;;;;;;;;;21.00;34.40;;;;;;8366938;28;19917;-43
2023/02/19 08:43:29;;;;;;;;;;;21.10;34.50;;;;;;8367148;28;19963;-43
2023/02/19 08:47:29;;;;;;;;;;;21.10;34.50;;;;;;8367291;28;19998;-41
2023/02/19 08:51:30;;;;;;;;;;;21.20;34.50;;;;;;8366371;28;20431;-41
2023/02/19 08:55:30;;;;;;;;;;;21.10;34.40;;;;;;8366402;28;19940;-42
2023/02/19 08:59:31;;;;;;;;;;;21.20;34.40;;;;;;8366716;28;19990;-41
2023/02/19 09:03:31;;;;;;;;;;;21.20;34.40;;;;;;8365988;28;19924;-41
2023/02/19 09:07:32;;;;;;;;;;;21.20;34.40;;;;;;8366494;28;20296;-41
2023/02/19 09:11:32;;;;;;;;;;;21.30;34.40;;;;;;8366188;28;20285;-42
2023/02/19 09:15:33;;;;;;;;;;;21.30;34.40;;;;;;8365527;28;19952;-42
2023/02/19 09:19:34;;;;;;;;;;;21.30;34.40;;;;;;8366019;28;19917;-43
2023/02/19 09:23:35;;;;;;;;;;;21.30;34.40;;;;;;8365741;28;20412;-41
2023/02/19 09:27:35;;;;;;;;;;;21.40;34.50;;;;;;8365555;28;19913;-41
2023/02/19 09:31:35;;;;;;;;;;;21.40;34.40;;;;;;8365468;28;20366;-43
2023/02/19 09:35:38;;;;;;;;;;;21.40;34.40;;;;;;8366035;28;19917;-41
2023/02/19 09:39:38;;;;;;;;;;;21.40;34.40;;;;;;8364774;28;19959;-42
2023/02/19 09:43:38;;;;;;;;;;;21.40;34.50;;;;;;8365095;28;20465;-41
2023/02/19 09:47:39;;;;;;;;;;;21.30;34.40;;;;;;8365157;28;19913;-42
2023/02/19 09:51:41;;;;;;;;;;;21.40;34.50;;;;;;8364534;28;20374;-43
2023/02/19 09:55:43;;;;;;;;;;;21.40;34.50;;;;;;8364721;28;19916;-43
2023/02/19 09:59:45;;;;;;;;;;;21.40;34.60;;;;;;8365021;28;20416;-43
2023/02/19 10:03:46;;;;;;;;;;;21.30;34.50;;;;;;8363968;28;19917;-44
2023/02/19 10:07:49;;;;;;;;;;;21.30;34.50;;;;;;8363843;28;19916;-43
2023/02/19 10:11:50;;;;;;;;;;;21.30;34.50;;;;;;8364131;28;19925;-43
2023/02/19 10:15:53;;;;;;;;;;;21.30;34.60;;;;;;8363816;28;19949;-43
2023/02/19 10:19:53;;;;;;;;;;;21.30;34.60;;;;;;8364183;28;19916;-43
2023/02/19 10:23:56;;;;;;;;;;;21.30;34.60;;;;;;8364054;28;19920;-42
2023/02/19 10:27:57;;;;;;;;;;;21.30;34.50;;;;;;8363805;28;19974;-43
2023/02/19 10:32:11;;;;;;;;;;;21.40;34.60;;;;;;8364238;28;19925;-43
2023/02/19 10:36:22;;;;;;;;;;;21.40;34.50;;;;;;8364064;28;19921;-43
2023/02/19 10:40:24;;;;;;;;;;;21.50;34.40;;;;;;8363506;28;19955;-43
2023/02/19 10:44:30;;;;;;;;;;;21.50;34.40;;;;;;8364018;28;20259;-42
2023/02/19 10:48:33;;;;;;;;;;;21.50;34.30;;;;;;8363138;28;19955;-42
2023/02/19 10:52:35;;;;;;;;;;;21.60;34.30;;;;;;8364154;28;19936;-42
2023/02/19 10:56:37;;;;;;;;;;;21.60;34.20;;;;;;8363633;28;19971;-42
2023/02/19 11:00:37;;;;;;;;;;;21.60;34.10;;;;;;8363346;28;19921;-42
2023/02/19 11:04:38;;;;;;;;;;;21.70;34.20;;;;;;8362215;28;19917;-43
2023/02/19 11:08:47;;;;;;;;;;;21.70;34.60;;;;;;8363047;28;19952;-41
2023/02/19 11:12:48;;;;;;;;;;;21.70;34.10;;;;;;8362794;28;19921;-42
2023/02/19 11:16:51;;;;;;;;;;;21.70;34.10;;;;;;8363377;28;20332;-43
2023/02/19 11:20:53;;;;;;;;;;;21.70;34.10;;;;;;8368530;28;20374;-43
2023/02/19 11:24:54;;;;;;;;;;;21.70;34.10;;;;;;8369123;28;20344;-42
2023/02/19 11:28:56;;;;;;;;;;;21.70;34.10;;;;;;8369376;28;19948;-42
2023/02/19 11:33:12;;;;;;;;;;;21.70;34.10;;;;;;8343157;28;19925;-43
2023/02/19 11:37:13;;;;;;;;;;;21.70;34.10;;;;;;8364113;28;19917;-44
2023/02/19 11:41:16;;;;;;;;;;;21.60;34.10;;;;;;8369106;28;19916;-44
2023/02/19 11:45:32;;;;;;;;;;;21.60;34.10;;;;;;8369004;28;19916;-43
2023/02/19 11:49:51;;;;;;;;;;;21.60;34.20;;;;;;8368542;28;20336;-43
2023/02/19 11:54:12;;;;;;;;;;;21.60;34.20;;;;;;8369087;28;19939;-42
2023/02/19 11:58:38;;;;;;;;;;;21.60;34.20;;;;;;8336598;28;19927;-44
2023/02/19 12:02:57;;;;;;;;;;;21.50;34.10;;;;;;8368687;28;19917;-43
2023/02/19 12:07:06;;;;;;;;;;;21.50;34.10;;;;;;8368064;28;19920;-43
2023/02/19 12:11:27;;;;;;;;;;;21.60;34.10;;;;;;8368338;28;19968;-43
2023/02/19 12:15:46;;;;;;;;;;;21.60;34.10;;;;;;8367551;28;20298;-42
2023/02/19 12:20:05;;;;;;;;;;;21.60;34.00;;;;;;8368052;28;19979;-43
2023/02/19 12:24:25;;;;;;;;;;;21.70;34.00;;;;;;8367974;28;19913;-43
2023/02/19 12:28:40;;;;;;;;;;;21.70;33.90;;;;;;8367459;28;19917;-43
2023/02/19 12:32:59;;;;;;;;;;;21.70;33.90;;;;;;8366619;28;19929;-41
2023/02/19 12:37:10;;;;;;;;;;;21.80;33.90;;;;;;8366975;28;19923;-42
2023/02/19 12:41:28;;;;;;;;;;;21.80;33.90;;;;;;8367480;28;20309;-43
2023/02/19 12:45:32;;;;;;;;;;;21.80;33.80;;;;;;8366481;28;20294;-42
2023/02/19 12:49:37;;;;;;;;;;;21.80;33.80;;;;;;8366806;28;19975;-42
2023/02/19 12:53:46;;;;;;;;;;;21.80;33.70;;;;;;8367079;28;19912;-42
2023/02/19 12:57:46;;;;;;;;;;;21.90;33.70;;;;;;8366102;28;19916;-42
2023/02/19 13:01:56;;;;;;;;;;;21.90;33.70;;;;;;8366965;28;20397;-42
2023/02/19 13:06:17;;;;;;;;;;;21.90;33.70;;;;;;8366540;28;19924;-43
2023/02/19 13:10:25;;;;;;;;;;;21.90;33.60;;;;;;8365383;28;19925;-44
2023/02/19 13:14:43;;;;;;;;;;;21.80;33.60;;;;;;8366382;28;20032;-43
2023/02/19 13:18:44;;;;;;;;;;;21.80;33.60;;;;;;8365902;28;20273;-43
2023/02/19 13:27:19;;;;;;;;;;;21.80;33.70;;;;;;8366039;28;19951;-42
2023/02/19 13:31:26;;;;;;;;;;;21.70;33.60;;;;;;8354937;28;19925;-42
2023/02/19 13:35:29;;;;;;;;;;;21.70;33.60;;;;;;8342805;28;20046;-40
2023/02/19 13:39:30;;;;;;;;;;;21.70;33.70;;;;;;8364082;28;19943;-41
2023/02/19 13:43:36;;;;;;;;;;;21.60;33.70;;;;;;8364116;28;19916;-41
2023/02/19 13:47:58;;;;;;;;;;;21.70;33.70;;;;;;8364968;28;19917;-41
2023/02/19 13:52:00;;;;;;;;;;;21.70;33.70;;;;;;8364231;28;19931;-42
2023/02/19 13:56:01;;;;;;;;;;;21.70;33.70;;;;;;8364956;28;19933;-42
2023/02/19 14:00:22;;;;;;;;;;;21.70;33.60;;;;;;8364698;28;19925;-42
2023/02/19 14:04:25;;;;;;;;;;;21.80;33.60;;;;;;8364333;28;19921;-42
2023/02/19 14:08:44;;;;;;;;;;;21.80;33.60;;;;;;8363523;28;20393;-42
2023/02/19 14:12:45;;;;;;;;;;;21.80;33.50;;;;;;8363885;28;19925;-42
2023/02/19 14:16:45;;;;;;;;;;;21.90;33.50;;;;;;8364545;28;19928;-42
2023/02/19 14:20:46;;;;;;;;;;;21.90;33.40;;;;;;8364131;28;19992;-42
2023/02/19 14:24:47;;;;;;;;;;;21.90;33.40;;;;;;8363621;28;19917;-42
2023/02/19 14:28:48;;;;;;;;;;;21.90;33.40;;;;;;8363954;28;19917;-42
2023/02/19 14:32:49;;;;;;;;;;;21.90;33.40;;;;;;8363578;28;19924;-42
2023/02/19 14:36:52;;;;;;;;;;;21.90;33.30;;;;;;8363264;28;19970;-42
2023/02/19 14:40:54;;;;;;;;;;;21.90;33.30;;;;;;8363419;28;19913;-42
2023/02/19 14:44:56;;;;;;;;;;;21.90;33.30;;;;;;8363443;28;20081;-42
2023/02/19 14:49:00;;;;;;;;;;;21.80;33.30;;;;;;8362676;28;19970;-42
2023/02/19 14:53:03;;;;;;;;;;;21.80;33.40;;;;;;8363020;28;19956;-42
2023/02/19 14:57:05;;;;;;;;;;;21.80;33.40;;;;;;8363019;28;19917;-42
2023/02/19 15:01:08;;;;;;;;;;;21.70;33.40;;;;;;8363121;28;19921;-42
2023/02/19 15:05:15;;;;;;;;;;;21.70;33.40;;;;;;8363321;28;20293;-41
2023/02/19 15:09:16;;;;;;;;;;;21.70;33.40;;;;;;8363014;28;20285;-42
2023/02/19 15:13:19;;;;;;;;;;;21.70;33.40;;;;;;8362307;28;19917;-42
2023/02/19 15:17:34;;;;;;;;;;;21.60;33.40;;;;;;8362847;28;19917;-42
2023/02/19 15:21:36;;;;;;;;;;;21.60;33.40;;;;;;8362523;28;19917;-42
2023/02/19 15:25:37;;;;;;;;;;;21.60;33.40;;;;;;8362724;28;19913;-41
2023/02/19 15:29:43;;;;;;;;;;;21.60;33.40;;;;;;8362832;28;19921;-41
2023/02/19 15:33:48;;;;;;;;;;;21.70;33.40;;;;;;8361945;28;19917;-41
2023/02/19 15:37:49;;;;;;;;;;;21.70;33.40;;;;;;8362331;28;20386;-41
2023/02/19 15:41:50;;;;;;;;;;;21.70;33.40;;;;;;8362333;28;19924;-42
2023/02/19 15:45:53;;;;;;;;;;;21.70;33.30;;;;;;8362013;28;19921;-41
2023/02/19 15:49:58;;;;;;;;;;;21.80;33.20;;;;;;8362484;28;20282;-42
2023/02/19 15:54:02;;;;;;;;;;;21.80;33.20;;;;;;8362344;28;20000;-41
2023/02/19 15:58:07;;;;;;;;;;;21.80;33.70;;;;;;8361493;28;19971;-41
2023/02/19 16:02:12;;;;;;;;;;;21.80;33.20;;;;;;8362354;28;19978;-41
2023/02/19 16:06:14;;;;;;;;;;;21.80;33.20;;;;;;8364462;28;20011;-42
2023/02/19 16:10:21;;;;;;;;;;;21.90;33.20;;;;;;8367837;28;20285;-42
2023/02/19 16:14:32;;;;;;;;;;;21.90;33.10;;;;;;8367838;28;20315;-42
2023/02/19 16:18:33;;;;;;;;;;;21.90;33.10;;;;;;8367456;28;19924;-41
2023/02/19 16:22:39;;;;;;;;;;;21.90;33.20;;;;;;8367982;28;19916;-41
2023/02/19 16:26:40;;;;;;;;;;;21.80;33.10;;;;;;8372176;28;19924;-41
2023/02/19 16:30:41;;;;;;;;;;;21.80;33.10;;;;;;8367188;28;19946;-41
2023/02/19 16:34:41;;;;;;;;;;;21.80;33.10;;;;;;8367642;28;19967;-42
2023/02/19 16:39:00;;;;;;;;;;;21.80;33.10;;;;;;8367444;28;19921;-41
2023/02/19 16:43:03;;;;;;;;;;;21.70;33.10;;;;;;8366755;28;20382;-42
2023/02/19 16:47:24;;;;;;;;;;;21.70;33.20;;;;;;8367181;28;19962;-42
2023/02/19 16:51:25;;;;;;;;;;;21.70;33.20;;;;;;8365705;28;20020;-41
2023/02/19 16:55:26;;;;;;;;;;;21.60;33.20;;;;;;8367445;28;20286;-42
2023/02/19 16:59:27;;;;;;;;;;;21.60;33.30;;;;;;8367154;28;19921;-42
2023/02/19 17:03:27;;;;;;;;;;;21.60;33.30;;;;;;8348077;28;20018;-42
2023/02/19 17:07:28;;;;;;;;;;;21.60;33.40;;;;;;8350326;28;20307;-42
2023/02/19 17:11:28;;;;;;;;;;;21.60;33.40;;;;;;8366351;28;19932;-43
2023/02/19 17:15:29;;;;;;;;;;;21.60;33.40;;;;;;8365739;28;19913;-43
2023/02/19 17:19:29;;;;;;;;;;;21.60;33.30;;;;;;8365860;28;19917;-42
2023/02/19 17:23:30;;;;;;;;;;;21.60;33.30;;;;;;8365789;28;19917;-43
2023/02/19 17:27:30;;;;;;;;;;;21.60;33.40;;;;;;8365356;28;19956;-42
2023/02/19 17:31:31;;;;;;;;;;;21.70;33.40;;;;;;8347770;28;20377;-44
2023/02/19 17:35:31;;;;;;;;;;;21.70;33.30;;;;;;8366055;28;19934;-43
2023/02/19 17:39:32;;;;;;;;;;;21.70;33.30;;;;;;8347025;28;20377;-42
2023/02/19 17:43:32;;;;;;;;;;;21.80;33.20;;;;;;8365017;28;19993;-42
2023/02/19 17:47:33;;;;;;;;;;;21.80;33.20;;;;;;8365307;28;19916;-42
2023/02/19 17:51:33;;;;;;;;;;;21.80;33.20;;;;;;8364755;28;19921;-42
2023/02/19 17:55:34;;;;;;;;;;;21.80;33.20;;;;;;8365522;28;19912;-42
2023/02/19 17:59:34;;;;;;;;;;;21.80;33.10;;;;;;8365345;28;20358;-42
2023/02/19 18:03:35;;;;;;;;;;;21.80;33.10;;;;;;8364187;28;19917;-41
2023/02/19 18:07:35;;;;;;;;;;;21.80;33.10;;;;;;8364590;28;19923;-41
2023/02/19 18:11:36;;;;;;;;;;;21.70;33.00;;;;;;8364314;28;19927;-43
2023/02/19 18:15:36;;;;;;;;;;;21.70;33.10;;;;;;8364129;28;20273;-42
2023/02/19 18:19:37;;;;;;;;;;;21.70;33.10;;;;;;8364144;28;19917;-41
2023/02/19 18:23:38;;;;;;;;;;;21.70;33.20;;;;;;8364019;28;19916;-42
2023/02/19 18:27:38;;;;;;;;;;;21.60;33.20;;;;;;8362792;28;19916;-42
2023/02/19 18:31:39;;;;;;;;;;;21.60;33.30;;;;;;8364044;28;20003;-42
2023/02/19 18:35:39;;;;;;;;;;;21.60;33.30;;;;;;8364080;28;19912;-42
2023/02/19 18:39:39;;;;;;;;;;;21.60;33.30;;;;;;8363242;28;19971;-42
2023/02/19 18:43:40;;;;;;;;;;;21.50;33.30;;;;;;8363619;28;19923;-42
2023/02/19 18:47:41;;;;;;;;;;;21.50;33.30;;;;;;8363640;28;19917;-43
2023/02/19 18:51:42;;;;;;;;;;;21.50;33.30;;;;;;8363226;28;19929;-43
2023/02/19 18:55:43;;;;;;;;;;;21.50;33.30;;;;;;8363519;28;19917;-42
2023/02/19 18:59:43;;;;;;;;;;;21.60;33.30;;;;;;8362862;28;19974;-42
2023/02/19 19:03:44;;;;;;;;;;;21.60;33.30;;;;;;8362392;28;19986;-43
2023/02/19 19:07:44;;;;;;;;;;;21.60;33.30;;;;;;8362972;28;19916;-42
2023/02/19 19:11:45;;;;;;;;;;;21.70;33.30;;;;;;8362856;28;19956;-42
2023/02/19 19:15:49;;;;;;;;;;;21.70;33.20;;;;;;8362195;28;20255;-42
2023/02/19 19:19:49;;;;;;;;;;;21.70;33.20;;;;;;8362656;28;19943;-42
2023/02/19 19:23:50;;;;;;;;;;;21.70;33.20;;;;;;8362542;28;20361;-42
2023/02/19 19:27:53;;;;;;;;;;;21.80;33.20;;;;;;8361898;28;20267;-42
2023/02/19 19:31:54;;;;;;;;;;;21.80;33.20;;;;;;8362538;28;20413;-43
2023/02/19 19:35:54;;;;;;;;;;;21.80;33.10;;;;;;8362608;28;19921;-42
2023/02/19 19:39:55;;;;;;;;;;;21.80;33.10;;;;;;8364167;28;20411;-43
2023/02/19 19:43:55;;;;;;;;;;;21.80;33.20;;;;;;8368784;28;19928;-43
2023/02/19 19:47:56;;;;;;;;;;;21.80;33.20;;;;;;8368645;28;19917;-45
2023/02/19 19:51:59;;;;;;;;;;;21.70;33.20;;;;;;8368476;28;19920;-42
2023/02/19 19:56:00;;;;;;;;;;;21.70;33.20;;;;;;8368602;28;20289;-43
2023/02/19 20:00:00;;;;;;;;;;;21.70;33.20;;;;;;8368479;28;19921;-42
2023/02/19 20:04:01;;;;;;;;;;;21.60;33.20;;;;;;8366640;28;19947;-43
2023/02/19 20:08:01;;;;;;;;;;;21.60;33.30;;;;;;8368315;28;19936;-43
2023/02/19 20:12:02;;;;;;;;;;;21.60;33.30;;;;;;8368342;28;19928;-42
2023/02/19 20:16:02;;;;;;;;;;;21.60;33.30;;;;;;8367507;28;19917;-43
2023/02/19 20:20:03;;;;;;;;;;;21.60;33.30;;;;;;8368006;28;19978;-43
2023/02/19 20:24:04;;;;;;;;;;;21.50;33.30;;;;;;8367598;28;19954;-42
2023/02/19 20:28:04;;;;;;;;;;;21.50;33.30;;;;;;8367088;28;20018;-43
2023/02/19 20:32:05;;;;;;;;;;;21.50;33.40;;;;;;8367914;28;20439;-42
2023/02/19 20:36:06;;;;;;;;;;;21.50;34.00;;;;;;8367419;28;19916;-43
2023/02/19 20:40:07;;;;;;;;;;;21.50;33.40;;;;;;8366683;28;19936;-42
2023/02/19 20:44:07;;;;;;;;;;;21.50;33.30;;;;;;8367070;28;20011;-42
2023/02/19 20:48:07;;;;;;;;;;;21.50;33.40;;;;;;8367190;28;19962;-42
2023/02/19 20:52:08;;;;;;;;;;;21.60;33.40;;;;;;8366051;28;19966;-42
2023/02/19 20:56:10;;;;;;;;;;;21.60;33.40;;;;;;8366676;28;19917;-42
2023/02/19 21:00:10;;;;;;;;;;;21.60;33.30;;;;;;8367267;28;19920;-42
2023/02/19 21:04:11;;;;;;;;;;;21.60;33.30;;;;;;8366080;28;20421;-42
2023/02/19 21:08:12;;;;;;;;;;;21.70;33.40;;;;;;8366328;28;19927;-42
2023/02/19 21:12:13;;;;;;;;;;;21.70;33.30;;;;;;8366540;28;19921;-42
2023/02/19 21:16:13;;;;;;;;;;;21.70;33.30;;;;;;8362910;28;20293;-42
2023/02/19 21:20:16;;;;;;;;;;;21.70;33.30;;;;;;8365946;28;20384;-43
2023/02/19 21:24:17;;;;;;;;;;;21.70;33.20;;;;;;8365537;28;20010;-42
2023/02/19 21:28:18;;;;;;;;;;;21.70;33.20;;;;;;8365369;28;19917;-42
2023/02/19 21:32:18;;;;;;;;;;;21.60;33.10;;;;;;8366033;28;19921;-42
2023/02/19 21:36:19;;;;;;;;;;;21.70;33.10;;;;;;8365662;28;19917;-43
2023/02/19 21:40:20;;;;;;;;;;;21.60;33.10;;;;;;8364936;28;19917;-42
2023/02/19 21:44:21;;;;;;;;;;;21.60;33.10;;;;;;8365483;28;19986;-42
2023/02/19 21:48:22;;;;;;;;;;;21.60;33.10;;;;;;8364797;28;19973;-42
2023/02/19 21:52:22;;;;;;;;;;;21.60;33.10;;;;;;8365274;28;19925;-43
2023/02/19 21:56:23;;;;;;;;;;;21.50;33.10;;;;;;8364984;28;19923;-43
2023/02/19 22:00:24;;;;;;;;;;;21.50;33.20;;;;;;8364914;28;19924;-41
2023/02/19 22:04:24;;;;;;;;;;;21.50;33.20;;;;;;8363686;28;19923;-42
2023/02/19 22:08:25;;;;;;;;;;;21.50;33.20;;;;;;8364729;28;20370;-42
2023/02/19 22:12:25;;;;;;;;;;;21.50;33.20;;;;;;8364026;28;19978;-42
2023/02/19 22:16:27;;;;;;;;;;;21.40;33.20;;;;;;8364412;28;19916;-42
2023/02/19 22:20:27;;;;;;;;;;;21.40;33.20;;;;;;8364558;28;20425;-42
2023/02/19 22:24:28;;;;;;;;;;;21.40;33.20;;;;;;8363907;28;19924;-43
2023/02/19 22:28:28;;;;;;;;;;;21.30;33.20;;;;;;8364070;28;19920;-43
2023/02/19 22:32:29;;;;;;;;;;;21.30;33.30;;;;;;8364010;28;20302;-43
2023/02/19 22:36:31;;;;;;;;;;;21.30;33.30;;;;;;8363543;28;19917;-43
2023/02/19 22:40:32;;;;;;;;;;;21.20;33.40;;;;;;8364136;28;19983;-43
2023/02/19 22:44:34;;;;;;;;;;;21.20;33.40;;;;;;8363592;28;19956;-42
2023/02/19 22:48:34;;;;;;;;;;;21.20;33.40;;;;;;8363055;28;19935;-42
2023/02/19 22:52:35;;;;;;;;;;;21.10;33.40;;;;;;8363978;28;19921;-42
2023/02/19 22:56:35;;;;;;;;;;;21.10;33.40;;;;;;8363544;28;19917;-42
2023/02/19 23:00:35;;;;;;;;;;;21.10;33.40;;;;;;8344085;28;19920;-43
2023/02/19 23:04:36;;;;;;;;;;;21.10;33.40;;;;;;8357720;28;20007;-43
2023/02/19 23:08:36;;;;;;;;;;;21.00;33.40;;;;;;8345317;28;19913;-43
2023/02/19 23:12:37;;;;;;;;;;;21.00;33.40;;;;;;8362782;28;19920;-42
2023/02/19 23:16:38;;;;;;;;;;;21.00;33.40;;;;;;8372407;28;19923;-42
2023/02/19 23:20:38;;;;;;;;;;;20.90;33.40;;;;;;8374442;28;20385;-42
2023/02/19 23:24:39;;;;;;;;;;;20.90;33.50;;;;;;8373458;28;19955;-42
2023/02/19 23:28:39;;;;;;;;;;;20.90;33.50;;;;;;8373917;28;20328;-42
2023/02/19 23:32:40;;;;;;;;;;;20.90;33.40;;;;;;8373976;28;19963;-42
2023/02/19 23:36:41;;;;;;;;;;;20.90;33.40;;;;;;8373424;28;19979;-42
2023/02/19 23:40:41;;;;;;;;;;;20.90;33.50;;;;;;8373852;28;20407;-42
2023/02/19 23:44:44;;;;;;;;;;;20.80;33.40;;;;;;8373740;28;19928;-42
2023/02/19 23:48:45;;;;;;;;;;;20.80;33.40;;;;;;8373322;28;20000;-42
2023/02/19 23:52:46;;;;;;;;;;;20.80;33.40;;;;;;8374064;28;19921;-42
2023/02/19 23:56:46;;;;;;;;;;;20.80;33.50;;;;;;8373591;28;19963;-42
